sensor_id;sensor_type;location;lat;lon;timestamp;P1;durP1;ratioP1;P2;durP2;ratioP2
11418;SDS011;32800;44.876;13.880;2023-06-04T00:02:11;4.30;;;3.50;;
11418;SDS011;32800;44.876;13.880;2023-06-04T00:04:37;4.20;;;3.80;;
11418;SDS011;32800;44.876;13.880;2023-06-04T00:07:02;3.95;;;3.45;;
11418;SDS011;32800;44.876;13.880;2023-06-04T00:09:28;3.65;;;3.30;;
11418;SDS011;32800;44.876;13.880;2023-06-04T00:11:54;4.80;;;3.72;;
11418;SDS011;32800;44.876;13.880;2023-06-04T00:14:20;3.50;;;3.20;;
11418;SDS011;32800;44.876;13.880;2023-06-04T00:16:45;3.95;;;3.55;;
11418;SDS011;32800;44.876;13.880;2023-06-04T00:19:11;4.13;;;3.60;;
11418;SDS011;32800;44.876;13.880;2023-06-04T00:21:37;4.30;;;3.90;;
11418;SDS011;32800;44.876;13.880;2023-06-04T00:24:02;3.55;;;3.25;;
11418;SDS011;32800;44.876;13.880;2023-06-04T00:26:28;3.83;;;3.53;;
11418;SDS011;32800;44.876;13.880;2023-06-04T00:28:56;5.35;;;3.55;;
11418;SDS011;32800;44.876;13.880;2023-06-04T00:31:22;4.47;;;3.60;;
11418;SDS011;32800;44.876;13.880;2023-06-04T00:33:48;3.95;;;3.47;;
11418;SDS011;32800;44.876;13.880;2023-06-04T00:36:13;3.78;;;3.45;;
11418;SDS011;32800;44.876;13.880;2023-06-04T00:38:39;4.00;;;3.60;;
11418;SDS011;32800;44.876;13.880;2023-06-04T00:41:05;6.18;;;3.85;;
11418;SDS011;32800;44.876;13.880;2023-06-04T00:43:30;3.85;;;3.47;;
11418;SDS011;32800;44.876;13.880;2023-06-04T00:45:58;3.65;;;3.28;;
11418;SDS011;32800;44.876;13.880;2023-06-04T00:48:23;4.15;;;3.75;;
11418;SDS011;32800;44.876;13.880;2023-06-04T00:50:52;4.22;;;3.85;;
11418;SDS011;32800;44.876;13.880;2023-06-04T00:53:19;3.83;;;3.53;;
11418;SDS011;32800;44.876;13.880;2023-06-04T00:55:46;3.75;;;3.45;;
11418;SDS011;32800;44.876;13.880;2023-06-04T00:58:11;3.45;;;3.15;;
11418;SDS011;32800;44.876;13.880;2023-06-04T01:00:38;3.88;;;3.30;;
11418;SDS011;32800;44.876;13.880;2023-06-04T01:03:05;4.03;;;3.72;;
11418;SDS011;32800;44.876;13.880;2023-06-04T01:05:36;3.47;;;3.17;;
11418;SDS011;32800;44.876;13.880;2023-06-04T01:08:07;3.80;;;3.50;;
11418;SDS011;32800;44.876;13.880;2023-06-04T01:10:34;3.30;;;3.00;;
11418;SDS011;32800;44.876;13.880;2023-06-04T01:13:00;3.63;;;3.33;;
11418;SDS011;32800;44.876;13.880;2023-06-04T01:15:26;4.65;;;3.67;;
11418;SDS011;32800;44.876;13.880;2023-06-04T01:17:53;4.00;;;3.60;;
11418;SDS011;32800;44.876;13.880;2023-06-04T01:25:36;3.60;;;3.30;;
11418;SDS011;32800;44.876;13.880;2023-06-04T01:28:07;3.92;;;3.55;;
11418;SDS011;32800;44.876;13.880;2023-06-04T01:30:36;4.00;;;3.60;;
11418;SDS011;32800;44.876;13.880;2023-06-04T01:33:11;3.90;;;3.60;;
11418;SDS011;32800;44.876;13.880;2023-06-04T01:35:38;3.53;;;3.22;;
11418;SDS011;32800;44.876;13.880;2023-06-04T01:38:03;3.65;;;3.35;;
11418;SDS011;32800;44.876;13.880;2023-06-04T01:40:29;3.83;;;3.42;;
11418;SDS011;32800;44.876;13.880;2023-06-04T01:42:55;3.90;;;3.47;;
11418;SDS011;32800;44.876;13.880;2023-06-04T01:45:21;3.50;;;3.20;;
11418;SDS011;32800;44.876;13.880;2023-06-04T01:47:47;4.35;;;3.60;;
11418;SDS011;32800;44.876;13.880;2023-06-04T01:50:13;3.70;;;3.40;;
11418;SDS011;32800;44.876;13.880;2023-06-04T01:52:39;4.43;;;4.03;;
11418;SDS011;32800;44.876;13.880;2023-06-04T01:55:06;3.92;;;3.55;;
11418;SDS011;32800;44.876;13.880;2023-06-04T01:57:33;4.00;;;3.60;;
11418;SDS011;32800;44.876;13.880;2023-06-04T01:59:59;3.80;;;3.50;;
11418;SDS011;32800;44.876;13.880;2023-06-04T02:02:26;3.88;;;3.58;;
11418;SDS011;32800;44.876;13.880;2023-06-04T02:04:52;3.75;;;3.45;;
11418;SDS011;32800;44.876;13.880;2023-06-04T02:07:18;4.30;;;3.90;;
11418;SDS011;32800;44.876;13.880;2023-06-04T02:09:47;4.40;;;3.40;;
11418;SDS011;32800;44.876;13.880;2023-06-04T02:12:13;4.20;;;3.67;;
11418;SDS011;32800;44.876;13.880;2023-06-04T02:14:39;4.15;;;3.78;;
11418;SDS011;32800;44.876;13.880;2023-06-04T02:17:07;3.70;;;3.40;;
11418;SDS011;32800;44.876;13.880;2023-06-04T02:19:41;4.28;;;3.80;;
11418;SDS011;32800;44.876;13.880;2023-06-04T02:22:17;3.95;;;3.60;;
11418;SDS011;32800;44.876;13.880;2023-06-04T02:24:44;3.67;;;3.38;;
11418;SDS011;32800;44.876;13.880;2023-06-04T02:27:10;3.80;;;3.50;;
11418;SDS011;32800;44.876;13.880;2023-06-04T02:29:38;3.88;;;3.40;;
11418;SDS011;32800;44.876;13.880;2023-06-04T02:32:04;4.10;;;3.70;;
11418;SDS011;32800;44.876;13.880;2023-06-04T02:34:30;3.72;;;3.42;;
11418;SDS011;32800;44.876;13.880;2023-06-04T02:36:56;3.85;;;3.40;;
11418;SDS011;32800;44.876;13.880;2023-06-04T02:39:23;3.92;;;3.63;;
11418;SDS011;32800;44.876;13.880;2023-06-04T02:41:49;3.85;;;3.45;;
11418;SDS011;32800;44.876;13.880;2023-06-04T02:44:15;4.10;;;3.78;;
11418;SDS011;32800;44.876;13.880;2023-06-04T02:46:40;3.95;;;3.58;;
11418;SDS011;32800;44.876;13.880;2023-06-04T02:49:06;4.18;;;3.78;;
11418;SDS011;32800;44.876;13.880;2023-06-04T02:51:32;4.30;;;3.90;;
11418;SDS011;32800;44.876;13.880;2023-06-04T02:53:58;3.85;;;3.55;;
11418;SDS011;32800;44.876;13.880;2023-06-04T02:56:24;4.78;;;3.67;;
11418;SDS011;32800;44.876;13.880;2023-06-04T02:58:53;3.88;;;3.53;;
11418;SDS011;32800;44.876;13.880;2023-06-04T03:01:21;4.20;;;3.75;;
11418;SDS011;32800;44.876;13.880;2023-06-04T03:03:47;3.80;;;3.50;;
11418;SDS011;32800;44.876;13.880;2023-06-04T03:06:14;4.10;;;3.70;;
11418;SDS011;32800;44.876;13.880;2023-06-04T03:08:40;4.03;;;3.63;;
11418;SDS011;32800;44.876;13.880;2023-06-04T03:11:07;3.75;;;3.38;;
11418;SDS011;32800;44.876;13.880;2023-06-04T03:13:32;4.10;;;3.80;;
11418;SDS011;32800;44.876;13.880;2023-06-04T03:15:58;3.70;;;3.40;;
11418;SDS011;32800;44.876;13.880;2023-06-04T03:18:27;3.95;;;3.63;;
11418;SDS011;32800;44.876;13.880;2023-06-04T03:20:53;3.80;;;3.50;;
11418;SDS011;32800;44.876;13.880;2023-06-04T03:23:19;3.83;;;3.42;;
11418;SDS011;32800;44.876;13.880;2023-06-04T03:25:45;4.20;;;3.80;;
11418;SDS011;32800;44.876;13.880;2023-06-04T03:28:10;4.30;;;3.75;;
11418;SDS011;32800;44.876;13.880;2023-06-04T03:30:36;3.80;;;3.50;;
11418;SDS011;32800;44.876;13.880;2023-06-04T03:33:01;4.53;;;4.07;;
11418;SDS011;32800;44.876;13.880;2023-06-04T03:35:27;3.97;;;3.58;;
11418;SDS011;32800;44.876;13.880;2023-06-04T03:37:53;4.50;;;4.10;;
11418;SDS011;32800;44.876;13.880;2023-06-04T03:40:19;4.57;;;4.20;;
11418;SDS011;32800;44.876;13.880;2023-06-04T03:42:45;4.18;;;3.78;;
11418;SDS011;32800;44.876;13.880;2023-06-04T03:45:10;4.25;;;3.85;;
11418;SDS011;32800;44.876;13.880;2023-06-04T03:47:37;4.45;;;3.97;;
11418;SDS011;32800;44.876;13.880;2023-06-04T03:50:03;4.15;;;3.83;;
11418;SDS011;32800;44.876;13.880;2023-06-04T03:52:29;3.67;;;3.38;;
11418;SDS011;32800;44.876;13.880;2023-06-04T03:54:55;4.20;;;3.80;;
11418;SDS011;32800;44.876;13.880;2023-06-04T03:57:21;4.20;;;3.80;;
11418;SDS011;32800;44.876;13.880;2023-06-04T03:59:46;4.05;;;3.67;;
11418;SDS011;32800;44.876;13.880;2023-06-04T04:02:12;3.80;;;3.45;;
11418;SDS011;32800;44.876;13.880;2023-06-04T04:04:37;4.13;;;3.75;;
11418;SDS011;32800;44.876;13.880;2023-06-04T04:07:03;4.80;;;3.78;;
11418;SDS011;32800;44.876;13.880;2023-06-04T04:09:28;3.97;;;3.63;;
11418;SDS011;32800;44.876;13.880;2023-06-04T04:11:54;4.00;;;3.63;;
11418;SDS011;32800;44.876;13.880;2023-06-04T04:14:20;5.53;;;3.72;;
11418;SDS011;32800;44.876;13.880;2023-06-04T04:16:46;3.55;;;3.25;;
11418;SDS011;32800;44.876;13.880;2023-06-04T04:19:12;4.40;;;4.00;;
11418;SDS011;32800;44.876;13.880;2023-06-04T04:21:38;4.72;;;3.60;;
11418;SDS011;32800;44.876;13.880;2023-06-04T04:24:03;3.95;;;3.65;;
11418;SDS011;32800;44.876;13.880;2023-06-04T04:26:29;4.13;;;3.65;;
11418;SDS011;32800;44.876;13.880;2023-06-04T04:28:55;4.25;;;3.85;;
11418;SDS011;32800;44.876;13.880;2023-06-04T04:31:25;4.10;;;3.80;;
11418;SDS011;32800;44.876;13.880;2023-06-04T04:33:52;3.70;;;3.40;;
11418;SDS011;32800;44.876;13.880;2023-06-04T04:36:19;3.90;;;3.60;;
11418;SDS011;32800;44.876;13.880;2023-06-04T04:38:44;4.18;;;3.63;;
11418;SDS011;32800;44.876;13.880;2023-06-04T04:41:10;3.70;;;3.40;;
11418;SDS011;32800;44.876;13.880;2023-06-04T04:43:37;4.50;;;4.10;;
11418;SDS011;32800;44.876;13.880;2023-06-04T04:46:04;4.13;;;3.40;;
11418;SDS011;32800;44.876;13.880;2023-06-04T04:48:30;3.97;;;3.67;;
11418;SDS011;32800;44.876;13.880;2023-06-04T04:50:56;3.92;;;3.60;;
11418;SDS011;32800;44.876;13.880;2023-06-04T04:53:21;3.97;;;3.60;;
11418;SDS011;32800;44.876;13.880;2023-06-04T04:55:47;4.20;;;3.80;;
11418;SDS011;32800;44.876;13.880;2023-06-04T04:58:13;4.53;;;3.85;;
11418;SDS011;32800;44.876;13.880;2023-06-04T05:00:39;4.53;;;3.65;;
11418;SDS011;32800;44.876;13.880;2023-06-04T05:03:05;4.03;;;3.63;;
11418;SDS011;32800;44.876;13.880;2023-06-04T05:05:31;4.38;;;3.83;;
11418;SDS011;32800;44.876;13.880;2023-06-04T05:07:57;4.25;;;3.85;;
11418;SDS011;32800;44.876;13.880;2023-06-04T05:10:23;4.13;;;3.65;;
11418;SDS011;32800;44.876;13.880;2023-06-04T05:12:55;4.10;;;3.70;;
11418;SDS011;32800;44.876;13.880;2023-06-04T05:15:22;4.28;;;3.55;;
11418;SDS011;32800;44.876;13.880;2023-06-04T05:17:49;4.00;;;3.60;;
11418;SDS011;32800;44.876;13.880;2023-06-04T05:20:17;3.75;;;3.45;;
11418;SDS011;32800;44.876;13.880;2023-06-04T05:22:44;3.85;;;3.55;;
11418;SDS011;32800;44.876;13.880;2023-06-04T05:25:10;4.25;;;3.85;;
11418;SDS011;32800;44.876;13.880;2023-06-04T05:27:36;3.85;;;3.50;;
11418;SDS011;32800;44.876;13.880;2023-06-04T05:30:03;3.88;;;3.50;;
11418;SDS011;32800;44.876;13.880;2023-06-04T05:32:29;3.78;;;3.45;;
11418;SDS011;32800;44.876;13.880;2023-06-04T05:34:57;4.05;;;3.58;;
11418;SDS011;32800;44.876;13.880;2023-06-04T05:37:26;4.40;;;3.65;;
11418;SDS011;32800;44.876;13.880;2023-06-04T05:39:55;3.72;;;3.42;;
11418;SDS011;32800;44.876;13.880;2023-06-04T05:42:22;4.43;;;3.67;;
11418;SDS011;32800;44.876;13.880;2023-06-04T05:44:48;4.20;;;3.80;;
11418;SDS011;32800;44.876;13.880;2023-06-04T05:47:15;4.03;;;3.63;;
11418;SDS011;32800;44.876;13.880;2023-06-04T05:49:44;4.07;;;3.70;;
11418;SDS011;32800;44.876;13.880;2023-06-04T05:52:10;4.03;;;3.63;;
11418;SDS011;32800;44.876;13.880;2023-06-04T05:54:35;4.13;;;3.40;;
11418;SDS011;32800;44.876;13.880;2023-06-04T05:57:03;4.00;;;3.60;;
11418;SDS011;32800;44.876;13.880;2023-06-04T05:59:29;4.07;;;3.67;;
11418;SDS011;32800;44.876;13.880;2023-06-04T06:01:55;4.00;;;3.70;;
11418;SDS011;32800;44.876;13.880;2023-06-04T06:04:21;4.05;;;3.65;;
11418;SDS011;32800;44.876;13.880;2023-06-04T06:06:46;3.78;;;3.42;;
11418;SDS011;32800;44.876;13.880;2023-06-04T06:09:13;3.90;;;3.58;;
11418;SDS011;32800;44.876;13.880;2023-06-04T06:11:40;3.90;;;3.60;;
11418;SDS011;32800;44.876;13.880;2023-06-04T06:14:06;3.67;;;3.38;;
11418;SDS011;32800;44.876;13.880;2023-06-04T06:16:31;4.28;;;3.88;;
11418;SDS011;32800;44.876;13.880;2023-06-04T06:18:58;4.20;;;3.80;;
11418;SDS011;32800;44.876;13.880;2023-06-04T06:21:23;3.67;;;3.38;;
11418;SDS011;32800;44.876;13.880;2023-06-04T06:23:49;3.60;;;3.30;;
11418;SDS011;32800;44.876;13.880;2023-06-04T06:26:15;4.03;;;3.70;;
11418;SDS011;32800;44.876;13.880;2023-06-04T06:28:41;4.10;;;3.78;;
11418;SDS011;32800;44.876;13.880;2023-06-04T06:31:07;4.10;;;3.70;;
11418;SDS011;32800;44.876;13.880;2023-06-04T06:33:32;5.03;;;3.83;;
11418;SDS011;32800;44.876;13.880;2023-06-04T06:35:58;4.57;;;4.00;;
11418;SDS011;32800;44.876;13.880;2023-06-04T06:38:26;4.20;;;3.28;;
11418;SDS011;32800;44.876;13.880;2023-06-04T06:40:52;4.28;;;3.55;;
11418;SDS011;32800;44.876;13.880;2023-06-04T06:43:18;4.45;;;3.83;;
11418;SDS011;32800;44.876;13.880;2023-06-04T06:45:43;3.88;;;3.58;;
11418;SDS011;32800;44.876;13.880;2023-06-04T06:48:09;4.22;;;3.72;;
11418;SDS011;32800;44.876;13.880;2023-06-04T06:50:34;5.50;;;4.07;;
11418;SDS011;32800;44.876;13.880;2023-06-04T06:53:01;4.43;;;4.00;;
11418;SDS011;32800;44.876;13.880;2023-06-04T06:55:29;4.93;;;4.28;;
11418;SDS011;32800;44.876;13.880;2023-06-04T06:57:55;4.68;;;3.92;;
11418;SDS011;32800;44.876;13.880;2023-06-04T07:00:20;4.53;;;3.90;;
11418;SDS011;32800;44.876;13.880;2023-06-04T07:02:46;4.60;;;4.20;;
11418;SDS011;32800;44.876;13.880;2023-06-04T07:05:11;3.97;;;3.67;;
11418;SDS011;32800;44.876;13.880;2023-06-04T07:07:39;4.75;;;4.07;;
11418;SDS011;32800;44.876;13.880;2023-06-04T07:10:05;4.40;;;4.00;;
11418;SDS011;32800;44.876;13.880;2023-06-04T07:12:31;4.28;;;3.88;;
11418;SDS011;32800;44.876;13.880;2023-06-04T07:14:56;4.78;;;4.28;;
11418;SDS011;32800;44.876;13.880;2023-06-04T07:17:22;6.07;;;3.90;;
11418;SDS011;32800;44.876;13.880;2023-06-04T07:19:47;4.53;;;4.13;;
11418;SDS011;32800;44.876;13.880;2023-06-04T07:22:13;5.30;;;3.90;;
11418;SDS011;32800;44.876;13.880;2023-06-04T07:24:41;4.68;;;4.03;;
11418;SDS011;32800;44.876;13.880;2023-06-04T07:27:13;5.35;;;4.28;;
11418;SDS011;32800;44.876;13.880;2023-06-04T07:29:39;5.38;;;4.13;;
11418;SDS011;32800;44.876;13.880;2023-06-04T07:32:05;4.45;;;3.95;;
11418;SDS011;32800;44.876;13.880;2023-06-04T07:34:31;5.43;;;4.35;;
11418;SDS011;32800;44.876;13.880;2023-06-04T07:36:57;5.07;;;4.40;;
11418;SDS011;32800;44.876;13.880;2023-06-04T07:39:23;4.60;;;4.15;;
11418;SDS011;32800;44.876;13.880;2023-06-04T07:41:48;6.72;;;4.53;;
11418;SDS011;32800;44.876;13.880;2023-06-04T07:44:14;5.72;;;4.72;;
11418;SDS011;32800;44.876;13.880;2023-06-04T07:46:39;6.40;;;4.40;;
11418;SDS011;32800;44.876;13.880;2023-06-04T07:49:05;5.88;;;4.65;;
11418;SDS011;32800;44.876;13.880;2023-06-04T07:51:31;7.82;;;4.30;;
11418;SDS011;32800;44.876;13.880;2023-06-04T07:53:57;4.50;;;4.13;;
11418;SDS011;32800;44.876;13.880;2023-06-04T07:56:23;4.97;;;4.57;;
11418;SDS011;32800;44.876;13.880;2023-06-04T07:58:49;5.63;;;5.00;;
11418;SDS011;32800;44.876;13.880;2023-06-04T08:01:16;5.00;;;4.53;;
11418;SDS011;32800;44.876;13.880;2023-06-04T08:03:41;4.85;;;4.35;;
11418;SDS011;32800;44.876;13.880;2023-06-04T08:06:07;5.63;;;4.68;;
11418;SDS011;32800;44.876;13.880;2023-06-04T08:08:32;4.90;;;4.43;;
11418;SDS011;32800;44.876;13.880;2023-06-04T08:11:01;4.97;;;4.50;;
11418;SDS011;32800;44.876;13.880;2023-06-04T08:13:27;4.82;;;4.43;;
11418;SDS011;32800;44.876;13.880;2023-06-04T08:15:53;5.03;;;4.60;;
11418;SDS011;32800;44.876;13.880;2023-06-04T08:18:18;4.72;;;4.22;;
11418;SDS011;32800;44.876;13.880;2023-06-04T08:20:44;5.57;;;4.57;;
11418;SDS011;32800;44.876;13.880;2023-06-04T08:23:10;5.72;;;4.95;;
11418;SDS011;32800;44.876;13.880;2023-06-04T08:25:35;6.18;;;5.00;;
11418;SDS011;32800;44.876;13.880;2023-06-04T08:28:01;5.35;;;4.85;;
11418;SDS011;32800;44.876;13.880;2023-06-04T08:30:26;5.25;;;4.75;;
11418;SDS011;32800;44.876;13.880;2023-06-04T08:32:52;5.75;;;5.00;;
11418;SDS011;32800;44.876;13.880;2023-06-04T08:35:18;5.75;;;5.15;;
11418;SDS011;32800;44.876;13.880;2023-06-04T08:37:44;5.65;;;4.97;;
11418;SDS011;32800;44.876;13.880;2023-06-04T08:40:09;5.15;;;4.65;;
11418;SDS011;32800;44.876;13.880;2023-06-04T08:42:42;4.88;;;4.38;;
11418;SDS011;32800;44.876;13.880;2023-06-04T08:45:10;6.32;;;4.90;;
11418;SDS011;32800;44.876;13.880;2023-06-04T08:47:48;5.15;;;4.72;;
11418;SDS011;32800;44.876;13.880;2023-06-04T08:50:15;4.47;;;4.07;;
11418;SDS011;32800;44.876;13.880;2023-06-04T08:52:42;5.10;;;4.47;;
11418;SDS011;32800;44.876;13.880;2023-06-04T08:55:11;5.25;;;4.65;;
11418;SDS011;32800;44.876;13.880;2023-06-04T08:57:39;5.22;;;4.72;;
11418;SDS011;32800;44.876;13.880;2023-06-04T09:00:05;6.20;;;5.60;;
11418;SDS011;32800;44.876;13.880;2023-06-04T09:02:33;5.65;;;5.15;;
11418;SDS011;32800;44.876;13.880;2023-06-04T09:05:05;5.57;;;5.07;;
11418;SDS011;32800;44.876;13.880;2023-06-04T09:07:36;7.68;;;4.93;;
11418;SDS011;32800;44.876;13.880;2023-06-04T09:10:02;5.57;;;5.03;;
11418;SDS011;32800;44.876;13.880;2023-06-04T09:12:29;5.72;;;4.78;;
11418;SDS011;32800;44.876;13.880;2023-06-04T09:14:56;5.85;;;5.25;;
11418;SDS011;32800;44.876;13.880;2023-06-04T09:17:22;5.35;;;4.85;;
11418;SDS011;32800;44.876;13.880;2023-06-04T09:19:48;4.90;;;4.50;;
11418;SDS011;32800;44.876;13.880;2023-06-04T09:22:15;6.00;;;5.40;;
11418;SDS011;32800;44.876;13.880;2023-06-04T09:24:41;7.65;;;4.68;;
11418;SDS011;32800;44.876;13.880;2023-06-04T09:27:18;5.18;;;4.68;;
11418;SDS011;32800;44.876;13.880;2023-06-04T09:29:54;4.82;;;4.43;;
11418;SDS011;32800;44.876;13.880;2023-06-04T09:32:24;4.88;;;4.47;;
11418;SDS011;32800;44.876;13.880;2023-06-04T09:34:54;6.15;;;5.20;;
11418;SDS011;32800;44.876;13.880;2023-06-04T09:37:22;4.80;;;4.30;;
11418;SDS011;32800;44.876;13.880;2023-06-04T09:39:54;5.38;;;4.80;;
11418;SDS011;32800;44.876;13.880;2023-06-04T09:42:21;5.35;;;4.30;;
11418;SDS011;32800;44.876;13.880;2023-06-04T09:44:47;5.57;;;4.78;;
11418;SDS011;32800;44.876;13.880;2023-06-04T09:47:12;5.20;;;4.65;;
11418;SDS011;32800;44.876;13.880;2023-06-04T09:49:45;5.85;;;4.75;;
11418;SDS011;32800;44.876;13.880;2023-06-04T09:52:14;5.47;;;4.57;;
11418;SDS011;32800;44.876;13.880;2023-06-04T09:54:40;4.70;;;4.30;;
11418;SDS011;32800;44.876;13.880;2023-06-04T09:57:16;4.60;;;4.20;;
11418;SDS011;32800;44.876;13.880;2023-06-04T09:59:43;5.88;;;4.43;;
11418;SDS011;32800;44.876;13.880;2023-06-04T10:02:11;4.63;;;4.22;;
11418;SDS011;32800;44.876;13.880;2023-06-04T10:04:37;5.43;;;4.63;;
11418;SDS011;32800;44.876;13.880;2023-06-04T10:07:06;5.20;;;4.70;;
11418;SDS011;32800;44.876;13.880;2023-06-04T10:09:34;5.68;;;4.90;;
11418;SDS011;32800;44.876;13.880;2023-06-04T10:12:00;7.03;;;4.90;;
11418;SDS011;32800;44.876;13.880;2023-06-04T10:14:38;5.50;;;4.65;;
11418;SDS011;32800;44.876;13.880;2023-06-04T10:17:07;6.00;;;4.32;;
11418;SDS011;32800;44.876;13.880;2023-06-04T10:19:34;7.65;;;5.03;;
11418;SDS011;32800;44.876;13.880;2023-06-04T10:22:00;5.72;;;5.18;;
11418;SDS011;32800;44.876;13.880;2023-06-04T10:24:26;5.75;;;4.78;;
11418;SDS011;32800;44.876;13.880;2023-06-04T10:26:52;5.40;;;4.90;;
11418;SDS011;32800;44.876;13.880;2023-06-04T10:29:20;5.80;;;5.20;;
11418;SDS011;32800;44.876;13.880;2023-06-04T10:31:47;7.07;;;5.45;;
11418;SDS011;32800;44.876;13.880;2023-06-04T10:34:18;5.57;;;5.07;;
11418;SDS011;32800;44.876;13.880;2023-06-04T10:36:44;9.18;;;6.13;;
11418;SDS011;32800;44.876;13.880;2023-06-04T10:39:10;5.55;;;4.93;;
11418;SDS011;32800;44.876;13.880;2023-06-04T10:41:36;5.45;;;4.95;;
11418;SDS011;32800;44.876;13.880;2023-06-04T10:44:02;7.32;;;5.47;;
11418;SDS011;32800;44.876;13.880;2023-06-04T10:46:37;8.52;;;5.70;;
11418;SDS011;32800;44.876;13.880;2023-06-04T10:49:04;10.00;;;5.43;;
11418;SDS011;32800;44.876;13.880;2023-06-04T10:51:33;6.38;;;5.30;;
11418;SDS011;32800;44.876;13.880;2023-06-04T10:54:00;8.60;;;5.38;;
11418;SDS011;32800;44.876;13.880;2023-06-04T10:56:27;6.75;;;5.30;;
11418;SDS011;32800;44.876;13.880;2023-06-04T10:58:53;5.22;;;4.75;;
11418;SDS011;32800;44.876;13.880;2023-06-04T11:01:26;7.20;;;5.15;;
11418;SDS011;32800;44.876;13.880;2023-06-04T11:03:53;5.75;;;4.88;;
11418;SDS011;32800;44.876;13.880;2023-06-04T11:06:19;6.18;;;5.07;;
11418;SDS011;32800;44.876;13.880;2023-06-04T11:08:46;6.70;;;5.63;;
11418;SDS011;32800;44.876;13.880;2023-06-04T11:11:13;6.65;;;5.63;;
11418;SDS011;32800;44.876;13.880;2023-06-04T11:13:39;7.65;;;5.28;;
11418;SDS011;32800;44.876;13.880;2023-06-04T11:16:18;6.85;;;5.30;;
11418;SDS011;32800;44.876;13.880;2023-06-04T11:18:57;5.47;;;4.88;;
11418;SDS011;32800;44.876;13.880;2023-06-04T11:21:24;6.95;;;5.45;;
11418;SDS011;32800;44.876;13.880;2023-06-04T11:23:54;5.20;;;4.70;;
11418;SDS011;32800;44.876;13.880;2023-06-04T11:26:21;7.18;;;5.57;;
11418;SDS011;32800;44.876;13.880;2023-06-04T11:28:49;8.70;;;5.68;;
11418;SDS011;32800;44.876;13.880;2023-06-04T11:31:15;5.85;;;5.25;;
11418;SDS011;32800;44.876;13.880;2023-06-04T11:33:47;10.25;;;5.15;;
11418;SDS011;32800;44.876;13.880;2023-06-04T11:36:22;7.45;;;5.22;;
11418;SDS011;32800;44.876;13.880;2023-06-04T11:38:57;6.05;;;5.15;;
11418;SDS011;32800;44.876;13.880;2023-06-04T11:41:24;5.20;;;4.70;;
11418;SDS011;32800;44.876;13.880;2023-06-04T11:43:52;6.57;;;5.25;;
11418;SDS011;32800;44.876;13.880;2023-06-04T11:46:18;7.30;;;5.00;;
11418;SDS011;32800;44.876;13.880;2023-06-04T11:48:44;6.95;;;4.75;;
11418;SDS011;32800;44.876;13.880;2023-06-04T11:51:10;6.65;;;4.82;;
11418;SDS011;32800;44.876;13.880;2023-06-04T11:53:39;5.30;;;4.28;;
11418;SDS011;32800;44.876;13.880;2023-06-04T11:56:06;5.15;;;4.60;;
11418;SDS011;32800;44.876;13.880;2023-06-04T11:58:32;6.18;;;4.40;;
11418;SDS011;32800;44.876;13.880;2023-06-04T12:00:58;5.13;;;4.28;;
11418;SDS011;32800;44.876;13.880;2023-06-04T12:06:19;10.93;;;4.43;;
11418;SDS011;32800;44.876;13.880;2023-06-04T12:08:52;5.60;;;4.47;;
11418;SDS011;32800;44.876;13.880;2023-06-04T12:11:24;6.00;;;4.50;;
11418;SDS011;32800;44.876;13.880;2023-06-04T12:13:54;11.25;;;4.30;;
11418;SDS011;32800;44.876;13.880;2023-06-04T12:16:20;5.53;;;4.38;;
11418;SDS011;32800;44.876;13.880;2023-06-04T12:18:46;7.22;;;4.45;;
11418;SDS011;32800;44.876;13.880;2023-06-04T12:21:23;11.45;;;4.80;;
11418;SDS011;32800;44.876;13.880;2023-06-04T12:26:38;4.97;;;4.47;;
11418;SDS011;32800;44.876;13.880;2023-06-04T12:29:12;6.10;;;4.38;;
11418;SDS011;32800;44.876;13.880;2023-06-04T12:31:39;7.82;;;4.50;;
11418;SDS011;32800;44.876;13.880;2023-06-04T12:34:05;5.75;;;4.20;;
11418;SDS011;32800;44.876;13.880;2023-06-04T12:36:31;7.22;;;4.10;;
11418;SDS011;32800;44.876;13.880;2023-06-04T12:38:59;4.97;;;4.47;;
11418;SDS011;32800;44.876;13.880;2023-06-04T12:41:28;6.18;;;4.50;;
11418;SDS011;32800;44.876;13.880;2023-06-04T12:43:54;4.45;;;4.05;;
11418;SDS011;32800;44.876;13.880;2023-06-04T12:46:20;4.70;;;4.30;;
11418;SDS011;32800;44.876;13.880;2023-06-04T12:48:47;5.05;;;4.53;;
11418;SDS011;32800;44.876;13.880;2023-06-04T12:51:13;4.47;;;4.07;;
11418;SDS011;32800;44.876;13.880;2023-06-04T12:53:39;4.80;;;4.15;;
11418;SDS011;32800;44.876;13.880;2023-06-04T12:56:05;4.35;;;3.80;;
11418;SDS011;32800;44.876;13.880;2023-06-04T12:58:31;7.28;;;4.35;;
11418;SDS011;32800;44.876;13.880;2023-06-04T13:00:57;4.70;;;4.22;;
11418;SDS011;32800;44.876;13.880;2023-06-04T13:03:22;6.13;;;4.13;;
11418;SDS011;32800;44.876;13.880;2023-06-04T13:05:48;4.80;;;4.28;;
11418;SDS011;32800;44.876;13.880;2023-06-04T13:08:14;5.20;;;4.35;;
11418;SDS011;32800;44.876;13.880;2023-06-04T13:10:40;7.22;;;4.35;;
11418;SDS011;32800;44.876;13.880;2023-06-04T13:13:05;4.40;;;4.00;;
11418;SDS011;32800;44.876;13.880;2023-06-04T13:15:31;4.55;;;4.03;;
11418;SDS011;32800;44.876;13.880;2023-06-04T13:17:56;4.72;;;4.30;;
11418;SDS011;32800;44.876;13.880;2023-06-04T13:20:22;4.63;;;4.22;;
11418;SDS011;32800;44.876;13.880;2023-06-04T13:22:47;6.68;;;4.35;;
11418;SDS011;32800;44.876;13.880;2023-06-04T13:25:13;4.78;;;4.20;;
11418;SDS011;32800;44.876;13.880;2023-06-04T13:27:39;6.45;;;3.90;;
11418;SDS011;32800;44.876;13.880;2023-06-04T13:30:05;4.63;;;4.20;;
11418;SDS011;32800;44.876;13.880;2023-06-04T13:32:31;4.40;;;3.83;;
11418;SDS011;32800;44.876;13.880;2023-06-04T13:34:57;4.78;;;4.38;;
11418;SDS011;32800;44.876;13.880;2023-06-04T13:37:22;4.97;;;4.30;;
11418;SDS011;32800;44.876;13.880;2023-06-04T13:39:48;5.40;;;4.10;;
11418;SDS011;32800;44.876;13.880;2023-06-04T13:42:13;4.65;;;4.00;;
11418;SDS011;32800;44.876;13.880;2023-06-04T13:44:39;4.43;;;3.88;;
11418;SDS011;32800;44.876;13.880;2023-06-04T13:47:04;4.57;;;4.18;;
11418;SDS011;32800;44.876;13.880;2023-06-04T13:49:33;4.45;;;4.03;;
11418;SDS011;32800;44.876;13.880;2023-06-04T13:51:59;3.85;;;3.42;;
11418;SDS011;32800;44.876;13.880;2023-06-04T13:54:24;6.60;;;4.10;;
11418;SDS011;32800;44.876;13.880;2023-06-04T13:56:50;6.45;;;3.83;;
11418;SDS011;32800;44.876;13.880;2023-06-04T13:59:15;5.28;;;3.42;;
11418;SDS011;32800;44.876;13.880;2023-06-04T14:01:41;4.80;;;4.10;;
11418;SDS011;32800;44.876;13.880;2023-06-04T14:04:06;4.80;;;4.03;;
11418;SDS011;32800;44.876;13.880;2023-06-04T14:06:32;7.78;;;4.13;;
11418;SDS011;32800;44.876;13.880;2023-06-04T14:08:58;4.45;;;4.00;;
11418;SDS011;32800;44.876;13.880;2023-06-04T14:11:24;4.53;;;4.07;;
11418;SDS011;32800;44.876;13.880;2023-06-04T14:13:49;8.13;;;4.30;;
11418;SDS011;32800;44.876;13.880;2023-06-04T14:16:15;4.90;;;4.22;;
11418;SDS011;32800;44.876;13.880;2023-06-04T14:18:40;4.35;;;3.95;;
11418;SDS011;32800;44.876;13.880;2023-06-04T14:21:06;4.90;;;4.32;;
11418;SDS011;32800;44.876;13.880;2023-06-04T14:23:31;5.13;;;4.30;;
11418;SDS011;32800;44.876;13.880;2023-06-04T14:25:57;4.05;;;3.75;;
11418;SDS011;32800;44.876;13.880;2023-06-04T14:28:22;5.70;;;4.03;;
11418;SDS011;32800;44.876;13.880;2023-06-04T14:30:48;6.70;;;3.90;;
11418;SDS011;32800;44.876;13.880;2023-06-04T14:33:13;5.15;;;3.97;;
11418;SDS011;32800;44.876;13.880;2023-06-04T14:35:39;5.45;;;4.13;;
11418;SDS011;32800;44.876;13.880;2023-06-04T14:38:09;5.28;;;4.00;;
11418;SDS011;32800;44.876;13.880;2023-06-04T14:40:34;8.43;;;4.22;;
11418;SDS011;32800;44.876;13.880;2023-06-04T14:43:00;4.50;;;3.97;;